DTKA/TBJ METAR and TAF weather

Enter ICAO airport designator
Station Type Date Time Source
DTKA METAR 2018/06/25 17:00 UTC NOAA

DTKA 251700Z 30007KT 260V330 9999 BKN020 25/19 Q1015 NOSIG


Station Type Date Time Source
DTKA Decoded METAR 2018/06/25 17:00 UTC NOAA

Tabarka, Tunisia (DTKA) 36-57N 008-45E 21M
Jun 25, 2018 - 01:00 PM EDT / 2018.06.25 1700 UTC
Wind: from the WNW (300 degrees) at 8 MPH (7 KT) (direction variable):0
Visibility: greater than 7 mile(s):0
Sky conditions: mostly cloudy
Temperature: 77 F (25 C)
Dew Point: 66 F (19 C)
Relative Humidity: 69%
Pressure (altimeter): 29.97 in. Hg (1015 hPa)
ob: DTKA 251700Z 30007KT 260V330 9999 BKN020 25/19 Q1015 NOSIG
cycle: 17

Station Type Date Time Source
DTKA TAF 2018/06/24 22:15 UTC NOAA

TAF TAF DTKA 242112Z 2422/2510 14008KT 9999 FEW020


Example: see airport list